Time;durP1;ratioP1;P1;durP2;ratioP2;P2;SDS_P1;SDS_P2;PMS_P1;PMS_P2;Temp;Humidity;BMP_temperature;BMP_pressure;BME280_temperature;BME280_humidity;BME280_pressure;Samples;Min_cycle;Max_cycle;Signal;HPM_P1;HPM_P2
2022/06/02 00:01:33;;;;;;;8.32;3.70;;;8.90;99.90;;;;;;5069027;28;20536;-66
2022/06/02 00:04:23;;;;;;;6.07;3.88;;;8.90;99.90;;;;;;5069495;28;20051;-64
2022/06/02 00:07:15;;;;;;;4.70;4.15;;;8.90;99.90;;;;;;5069537;28;20051;-68
2022/06/02 00:10:01;;;;;;;4.35;3.95;;;8.90;99.90;;;;;;5031903;28;20082;-68
2022/06/02 00:12:39;;;;;;;7.40;4.70;;;8.80;99.90;;;;;;5070325;28;20565;-67
2022/06/02 00:15:23;;;;;;;6.45;4.28;;;8.90;99.90;;;;;;5053168;28;20052;-65
2022/06/02 00:18:10;;;;;;;6.28;5.07;;;8.90;99.90;;;;;;5069886;28;20051;-66
2022/06/02 00:20:53;;;;;;;7.22;5.07;;;8.90;99.90;;;;;;5067842;28;20048;-67
2022/06/02 00:23:44;;;;;;;5.75;5.25;;;8.90;99.90;;;;;;5070345;28;20440;-62
2022/06/02 00:26:52;;;;;;;12.43;5.32;;;8.90;99.90;;;;;;5069588;28;20056;-61
2022/06/02 00:29:32;;;;;;;5.50;4.68;;;8.90;99.90;;;;;;5005681;28;20041;-66
2022/06/02 00:32:09;;;;;;;7.88;5.10;;;8.90;99.90;;;;;;5070253;28;20064;-61
2022/06/02 00:34:55;;;;;;;7.38;4.60;;;8.80;99.90;;;;;;5069979;28;20052;-68
2022/06/02 00:37:23;;;;;;;7.07;4.85;;;8.80;99.90;;;;;;5074095;28;20055;-64
2022/06/02 00:39:51;;;;;;;4.97;4.50;;;8.70;99.90;;;;;;5088465;28;20048;-71
2022/06/02 00:42:26;;;;;;;6.07;4.45;;;8.70;99.90;;;;;;5069434;28;20040;-64
2022/06/02 00:45:23;;;;;;;5.90;4.78;;;8.70;99.90;;;;;;5069285;28;20083;-63
2022/06/02 00:47:58;;;;;;;12.10;4.45;;;8.70;99.90;;;;;;5048270;28;20059;-60
2022/06/02 00:50:42;;;;;;;7.85;4.55;;;8.70;99.90;;;;;;5069111;28;20039;-70
2022/06/02 00:53:11;;;;;;;5.80;4.43;;;8.60;99.90;;;;;;5069276;28;20052;-62
2022/06/02 00:59:36;;;;;;;4.35;3.95;;;8.60;99.90;;;;;;5067418;28;20135;-69
2022/06/02 01:02:01;;;;;;;;;;;8.50;99.90;;;;;;4969632;28;20046;-69
2022/06/02 01:04:27;;;;;;;8.20;4.47;;;8.60;99.90;;;;;;5034835;28;19965;-61
2022/06/02 01:07:38;;;;;;;6.28;4.80;;;8.60;99.90;;;;;;5068878;28;20472;-63
2022/06/02 01:10:13;;;;;;;7.22;4.35;;;8.60;99.90;;;;;;5060639;28;20066;-60
2022/06/02 01:13:18;;;;;;;4.75;4.28;;;8.60;99.90;;;;;;5052409;28;20044;-63
2022/06/02 01:16:19;;;;;;;11.45;4.60;;;8.60;99.90;;;;;;5067964;28;20052;-67
2022/06/02 01:18:55;;;;;;;6.47;4.40;;;8.60;99.90;;;;;;4981096;28;20055;-69
2022/06/02 01:21:43;;;;;;;4.80;4.30;;;8.60;99.90;;;;;;5060488;28;20893;-62
2022/06/02 01:24:34;;;;;;;8.63;4.32;;;8.60;99.90;;;;;;5044954;28;20044;-67
2022/06/02 01:27:15;;;;;;;5.43;4.30;;;8.60;99.90;;;;;;5057826;28;20113;-62
2022/06/02 01:30:11;;;;;;;7.88;4.43;;;8.60;99.90;;;;;;5066227;28;20072;-68
2022/06/02 01:33:02;;;;;;;10.27;4.15;;;8.60;99.90;;;;;;5068467;28;20083;-64
2022/06/02 01:35:30;;;;;;;4.28;3.85;;;8.60;99.90;;;;;;5057218;28;20126;-60
2022/06/02 01:38:18;;;;;;;4.65;4.05;;;8.60;99.90;;;;;;5068029;28;20517;-65
2022/06/02 01:41:11;;;;;;;4.35;3.85;;;8.60;99.90;;;;;;5050738;28;20051;-66
2022/06/02 01:44:08;;;;;;;6.30;3.85;;;8.60;99.90;;;;;;5048104;28;20052;-64
2022/06/02 01:46:48;;;;;;;5.88;3.65;;;8.60;99.90;;;;;;5047316;28;20051;-64
2022/06/02 01:49:51;;;;;;;3.85;3.53;;;8.60;99.90;;;;;;5068578;28;20431;-66
2022/06/02 01:52:42;;;;;;;3.10;2.80;;;8.60;99.90;;;;;;5072927;28;20494;-64
2022/06/02 01:55:14;;;;;;;7.15;3.50;;;8.60;99.90;;;;;;5051065;28;20052;-61
2022/06/02 01:57:55;;;;;;;4.28;3.33;;;8.60;99.90;;;;;;5052514;28;20044;-65
2022/06/02 02:00:25;;;;;;;6.90;3.60;;;8.70;99.90;;;;;;5067565;28;20136;-69
2022/06/02 02:02:51;;;;;;;;;;;8.70;99.90;;;;;;5066439;28;20055;-70
2022/06/02 02:05:25;;;;;;;4.00;3.35;;;8.70;99.90;;;;;;5066703;28;20571;-70
2022/06/02 02:08:11;;;;;;;4.25;3.50;;;8.60;99.90;;;;;;5047073;28;20097;-69
2022/06/02 02:11:06;;;;;;;5.65;4.00;;;8.60;99.90;;;;;;5049091;28;20040;-70
2022/06/02 02:13:46;;;;;;;3.92;3.63;;;8.60;99.90;;;;;;5056377;28;20680;-63
2022/06/02 02:16:30;;;;;;;5.65;3.50;;;8.60;99.90;;;;;;5067110;28;20108;-67
2022/06/02 02:19:14;;;;;;;4.32;3.72;;;8.50;99.90;;;;;;5051519;28;20467;-66
2022/06/02 02:22:09;;;;;;;6.15;3.67;;;8.50;99.90;;;;;;5053551;28;20130;-69
2022/06/02 02:25:10;;;;;;;5.78;3.47;;;8.50;99.90;;;;;;5067585;28;20051;-69
2022/06/02 02:28:03;;;;;;;;;;;8.50;99.90;;;;;;5040676;28;20064;-65
2022/06/02 02:30:35;;;;;;;8.70;4.20;;;8.50;99.90;;;;;;5040009;28;19923;-63
2022/06/02 02:33:31;;;;;;;5.50;4.00;;;8.40;99.90;;;;;;5065426;28;20684;-69
2022/06/02 02:36:10;;;;;;;4.57;4.10;;;8.40;99.90;;;;;;5068005;28;20056;-63
2022/06/02 02:38:56;;;;;;;5.88;4.18;;;8.40;99.90;;;;;;5067511;28;20048;-69
2022/06/02 02:41:42;;;;;;;5.85;3.83;;;8.40;99.90;;;;;;5067491;28;20121;-61
2022/06/02 02:44:34;;;;;;;8.88;4.32;;;8.40;99.90;;;;;;5065938;28;20079;-60
2022/06/02 02:47:23;;;;;;;6.22;4.07;;;8.30;99.90;;;;;;5067159;28;20083;-70
2022/06/02 02:50:08;;;;;;;6.18;4.72;;;8.30;99.90;;;;;;5063350;28;20490;-69
2022/06/02 02:52:52;;;;;;;7.63;4.32;;;8.30;99.90;;;;;;5067480;28;20060;-65
2022/06/02 02:55:29;;;;;;;6.97;4.63;;;8.30;99.90;;;;;;5047282;28;20047;-60
2022/06/02 02:58:24;;;;;;;5.72;4.60;;;8.40;99.90;;;;;;5058505;28;20550;-66
2022/06/02 03:01:04;;;;;;;6.35;4.40;;;8.30;99.90;;;;;;5054362;28;20043;-62
2022/06/02 03:04:06;;;;;;;5.38;4.22;;;8.30;99.90;;;;;;5067453;28;20082;-66
2022/06/02 03:06:37;;;;;;;4.97;4.57;;;8.30;99.90;;;;;;5036191;28;20052;-66
2022/06/02 03:09:07;;;;;;;8.32;4.28;;;8.30;99.90;;;;;;5065843;28;20032;-67
2022/06/02 03:11:42;;;;;;;5.88;4.30;;;8.30;99.90;;;;;;5067746;28;20119;-69
2022/06/02 03:14:40;;;;;;;8.13;4.60;;;8.20;99.90;;;;;;5066626;28;20130;-68
2022/06/02 03:17:43;;;;;;;4.43;4.00;;;8.20;99.90;;;;;;5067133;28;20044;-63
2022/06/02 03:20:25;;;;;;;4.80;4.30;;;8.20;99.90;;;;;;5066512;28;20075;-59
2022/06/02 03:23:20;;;;;;;9.45;4.40;;;8.20;99.90;;;;;;5066845;28;20044;-61
2022/06/02 03:25:59;;;;;;;7.75;4.70;;;8.20;99.90;;;;;;5067086;28;20482;-65
2022/06/02 03:28:46;;;;;;;6.57;4.65;;;8.20;99.90;;;;;;5067331;28;20109;-69
2022/06/02 03:31:23;;;;;;;5.47;4.68;;;8.20;99.90;;;;;;5065229;28;20105;-64
2022/06/02 03:34:01;;;;;;;9.05;4.28;;;8.20;99.90;;;;;;5067149;28;20048;-63
2022/06/02 03:37:01;;;;;;;7.05;4.38;;;8.20;99.90;;;;;;5066420;28;20044;-65
2022/06/02 03:39:47;;;;;;;8.68;4.68;;;8.20;99.90;;;;;;5067755;28;20374;-65
2022/06/02 03:42:25;;;;;;;9.15;4.97;;;8.30;99.90;;;;;;5059376;28;20052;-66
2022/06/02 03:45:31;;;;;;;4.35;3.97;;;8.30;99.90;;;;;;5059650;28;20115;-60
2022/06/02 03:48:08;;;;;;;6.07;4.47;;;8.30;99.90;;;;;;5008527;28;20094;-70
2022/06/02 03:50:49;;;;;;;5.25;4.32;;;8.40;99.90;;;;;;5053044;28;20036;-61
2022/06/02 03:53:45;;;;;;;7.07;4.40;;;8.40;99.90;;;;;;5061008;28;20057;-66
2022/06/02 03:56:47;;;;;;;8.88;4.35;;;8.50;99.90;;;;;;5050046;28;20550;-59
2022/06/02 03:59:25;;;;;;;6.70;3.72;;;8.50;99.90;;;;;;5050332;28;20087;-66
2022/06/02 04:02:05;;;;;;;4.82;4.22;;;8.60;99.90;;;;;;5048579;28;20124;-64
2022/06/02 04:04:49;;;;;;;6.80;3.88;;;8.60;99.90;;;;;;5049912;28;20055;-64
2022/06/02 04:07:42;;;;;;;5.45;3.58;;;8.60;99.90;;;;;;5050354;28;20117;-66
2022/06/02 04:10:23;;;;;;;4.80;3.42;;;8.70;99.90;;;;;;5043952;28;20384;-70
2022/06/02 04:13:38;;;;;;;5.07;3.40;;;8.80;99.90;;;;;;5041875;28;20049;-66
2022/06/02 04:16:23;;;;;;;5.38;3.17;;;8.90;99.90;;;;;;5046017;28;21013;-62
2022/06/02 04:18:59;;;;;;;5.90;3.58;;;9.00;99.90;;;;;;5050018;28;20048;-70
2022/06/02 04:21:46;;;;;;;3.85;3.40;;;9.10;99.90;;;;;;5032753;28;20089;-63
2022/06/02 04:24:21;;;;;;;3.58;3.28;;;9.20;99.90;;;;;;5065527;28;20466;-63
2022/06/02 04:26:59;;;;;;;4.65;3.17;;;9.30;99.90;;;;;;5053230;28;20115;-67
2022/06/02 04:29:59;;;;;;;3.42;2.83;;;9.40;99.90;;;;;;5049985;28;20063;-65
2022/06/02 04:32:58;;;;;;;5.68;3.15;;;9.40;99.90;;;;;;5065989;28;20052;-69
2022/06/02 04:36:04;;;;;;;6.25;3.17;;;9.60;99.90;;;;;;5037200;28;20048;-64
2022/06/02 04:38:51;;;;;;;4.45;3.40;;;9.70;99.90;;;;;;4995799;28;20041;-64
2022/06/02 04:41:35;;;;;;;5.07;3.42;;;9.70;99.90;;;;;;5049138;28;20113;-67
2022/06/02 04:44:39;;;;;;;6.30;3.75;;;9.80;99.90;;;;;;5049612;28;20049;-64
2022/06/02 04:47:32;;;;;;;4.68;3.05;;;9.80;99.90;;;;;;5050202;28;20422;-68
2022/06/02 04:50:19;;;;;;;4.63;3.13;;;9.80;99.90;;;;;;5040858;28;20061;-65
2022/06/02 04:52:48;;;;;;;6.88;3.35;;;9.80;99.90;;;;;;5041913;28;20064;-66
2022/06/02 04:55:33;;;;;;;3.17;2.88;;;9.90;99.90;;;;;;5048056;28;20049;-67
2022/06/02 04:58:22;;;;;;;6.93;3.33;;;9.90;99.90;;;;;;5031114;28;20403;-59
2022/06/02 05:01:15;;;;;;;3.95;2.97;;;10.00;99.90;;;;;;5065214;28;20564;-66
2022/06/02 05:03:55;;;;;;;6.13;2.85;;;10.00;99.90;;;;;;5032435;28;20054;-62
2022/06/02 05:06:27;;;;;;;;;;;10.40;99.90;;;;;;5049585;28;20513;-66
2022/06/02 05:09:15;;;;;;;3.38;3.08;;;10.70;99.90;;;;;;5049333;28;20376;-63
2022/06/02 05:11:43;;;;;;;3.85;3.17;;;10.80;99.90;;;;;;5038051;28;20088;-60
2022/06/02 05:14:28;;;;;;;3.83;3.05;;;10.80;99.90;;;;;;5046367;28;20095;-70
2022/06/02 05:17:06;;;;;;;6.15;3.13;;;10.70;99.90;;;;;;5033168;28;20144;-64
2022/06/02 05:20:04;;;;;;;3.03;2.80;;;10.70;99.90;;;;;;5048626;28;20048;-62
2022/06/02 05:22:56;;;;;;;3.15;2.70;;;10.60;99.90;;;;;;5048780;28;20083;-65
2022/06/02 05:25:40;;;;;;;3.72;3.13;;;10.70;99.90;;;;;;5038238;28;20047;-66
2022/06/02 05:28:18;;;;;;;6.80;3.20;;;10.80;99.90;;;;;;5048983;28;20568;-64
2022/06/02 05:31:02;;;;;;;7.28;3.40;;;11.00;99.90;;;;;;5047494;28;20083;-62
2022/06/02 05:34:15;;;;;;;7.10;3.22;;;11.00;99.90;;;;;;5048331;28;20040;-63
2022/06/02 05:37:18;;;;;;;6.18;3.08;;;11.00;99.90;;;;;;4968796;28;20070;-65
2022/06/02 05:39:56;;;;;;;3.97;3.05;;;11.30;99.90;;;;;;4952072;28;20129;-62
2022/06/02 05:42:45;;;;;;;10.77;3.40;;;11.70;99.90;;;;;;5026448;28;20049;-61
2022/06/02 05:45:23;;;;;;;5.00;3.10;;;11.70;99.90;;;;;;5046653;28;20140;-67
2022/06/02 05:48:12;;;;;;;7.30;2.95;;;11.70;99.90;;;;;;5047970;28;20086;-67
2022/06/02 05:51:02;;;;;;;5.05;3.83;;;11.70;99.90;;;;;;5018429;28;20049;-65
2022/06/02 05:53:37;;;;;;;4.57;3.30;;;11.60;99.90;;;;;;5064030;28;20147;-61
2022/06/02 05:56:06;;;;;;;8.50;6.55;;;11.70;99.90;;;;;;5047977;28;20449;-69
2022/06/02 05:59:09;;;;;;;8.32;5.68;;;11.70;99.90;;;;;;5046300;28;20081;-60
2022/06/02 06:01:53;;;;;;;6.88;4.60;;;11.80;99.90;;;;;;5064313;28;20040;-60
2022/06/02 06:04:29;;;;;;;3.53;2.80;;;11.90;99.90;;;;;;5064264;28;20146;-63
2022/06/02 06:06:59;;;;;;;4.20;2.35;;;11.90;99.90;;;;;;5068734;28;20051;-61
2022/06/02 06:09:41;;;;;;;;;;;12.00;99.90;;;;;;5068443;28;20221;-65
2022/06/02 06:12:09;;;;;;;8.55;2.60;;;12.10;99.90;;;;;;5063590;28;19931;-67
2022/06/02 06:14:47;;;;;;;5.82;2.20;;;12.10;99.90;;;;;;5068078;28;20044;-59
2022/06/02 06:17:48;;;;;;;8.77;2.13;;;12.20;99.90;;;;;;5068561;28;20134;-68
2022/06/02 06:20:42;;;;;;;4.32;2.17;;;12.30;99.90;;;;;;5063534;28;20064;-59
2022/06/02 06:23:27;;;;;;;5.82;1.83;;;12.40;99.90;;;;;;5066798;28;20093;-59
2022/06/02 06:26:11;;;;;;;1.95;1.30;;;12.50;99.90;;;;;;5056546;28;20057;-65
2022/06/02 06:29:04;;;;;;;2.08;1.48;;;12.60;99.90;;;;;;5055590;28;20401;-65
2022/06/02 06:31:46;;;;;;;2.60;1.90;;;12.60;99.90;;;;;;5066298;28;20043;-60
2022/06/02 06:34:25;;;;;;;2.25;1.50;;;12.70;99.90;;;;;;5050243;28;20060;-59
2022/06/02 06:37:02;;;;;;;4.38;1.70;;;12.70;99.90;;;;;;5067926;28;20399;-65
2022/06/02 06:39:48;;;;;;;3.55;1.92;;;12.80;99.90;;;;;;5051285;28;20044;-60
2022/06/02 06:42:23;;;;;;;3.08;1.45;;;12.80;99.90;;;;;;5039424;28;20051;-65
2022/06/02 06:45:11;;;;;;;2.42;1.60;;;12.80;99.90;;;;;;5054796;28;20048;-65
2022/06/02 06:47:42;;;;;;;6.82;2.45;;;12.90;99.90;;;;;;5050412;28;20102;-68
2022/06/02 06:50:17;;;;;;;2.53;1.02;;;13.00;99.90;;;;;;5059504;28;20036;-67
2022/06/02 06:53:17;;;;;;;6.53;1.20;;;13.10;99.90;;;;;;5062541;28;20089;-64
2022/06/02 06:56:25;;;;;;;7.05;1.80;;;13.20;99.90;;;;;;5065240;28;20054;-61
2022/06/02 06:59:03;;;;;;;2.33;1.50;;;13.40;99.90;;;;;;5058504;28;20048;-62
2022/06/02 07:01:58;;;;;;;3.65;1.50;;;13.50;99.90;;;;;;5049751;28;20857;-63
2022/06/02 07:04:54;;;;;;;3.95;1.60;;;13.60;98.70;;;;;;5052638;28;20466;-67
2022/06/02 07:07:37;;;;;;;3.97;1.23;;;13.50;99.90;;;;;;5036323;28;20436;-64
2022/06/02 07:10:25;;;;;;;5.97;1.90;;;13.50;98.90;;;;;;5044113;28;20048;-62
2022/06/02 07:12:58;;;;;;;7.28;2.55;;;13.40;99.90;;;;;;5058994;28;20075;-59
2022/06/02 07:15:56;;;;;;;4.78;1.50;;;13.40;99.90;;;;;;5070537;28;20405;-59
2022/06/02 07:18:52;;;;;;;6.25;1.67;;;13.30;99.90;;;;;;5084394;28;20058;-64
2022/06/02 07:22:02;;;;;;;2.70;0.95;;;13.40;99.90;;;;;;5041993;28;20056;-61
2022/06/02 07:25:22;;;;;;;2.38;1.35;;;13.30;99.60;;;;;;5065597;28;20083;-63
2022/06/02 07:27:54;;;;;;;2.03;1.45;;;13.30;99.50;;;;;;4990301;28;20053;-59
2022/06/02 07:30:39;;;;;;;3.70;1.08;;;13.20;99.90;;;;;;5057385;28;20060;-61
2022/06/02 07:33:26;;;;;;;2.00;0.95;;;13.20;99.90;;;;;;5069996;28;20094;-63
2022/06/02 07:36:16;;;;;;;4.75;1.58;;;13.10;99.90;;;;;;5071488;28;20066;-61
2022/06/02 07:39:08;;;;;;;3.13;1.50;;;13.20;99.90;;;;;;5070890;28;20083;-59
2022/06/02 07:41:43;;;;;;;3.25;1.73;;;13.30;99.90;;;;;;5059386;28;20062;-62
2022/06/02 07:44:54;;;;;;;6.13;1.50;;;13.30;99.70;;;;;;5068563;28;20098;-72
2022/06/02 07:47:56;;;;;;;7.55;1.48;;;13.40;99.90;;;;;;5067346;28;20044;-63
2022/06/02 07:50:31;;;;;;;4.43;1.75;;;13.40;99.90;;;;;;5051801;28;20139;-62
2022/06/02 07:53:14;;;;;;;1.90;0.77;;;13.50;98.90;;;;;;5070605;28;20990;-61
2022/06/02 07:55:57;;;;;;;4.25;1.48;;;13.50;93.50;;;;;;5067907;28;20098;-68
2022/06/02 07:58:55;;;;;;;4.28;1.20;;;13.60;95.20;;;;;;5061324;28;20055;-60
2022/06/02 08:01:57;;;;;;;4.13;1.30;;;13.60;96.30;;;;;;5070024;28;20048;-70
2022/06/02 08:04:53;;;;;;;2.58;0.95;;;13.50;94.30;;;;;;5008302;28;20046;-70
2022/06/02 08:07:38;;;;;;;6.57;1.50;;;13.50;94.50;;;;;;5006960;28;20057;-63
2022/06/02 08:10:12;;;;;;;1.95;0.95;;;13.60;99.90;;;;;;4992088;28;20049;-67
2022/06/02 08:12:47;;;;;;;4.78;1.20;;;13.60;95.40;;;;;;5005731;28;20180;-60
2022/06/02 08:15:34;;;;;;;2.88;1.02;;;13.60;97.20;;;;;;4990370;28;20042;-70
2022/06/02 08:18:30;;;;;;;2.22;0.90;;;13.60;93.20;;;;;;5007515;28;20103;-69
2022/06/02 08:21:15;;;;;;;3.60;1.08;;;13.70;95.80;;;;;;5008515;28;20072;-63
2022/06/02 08:24:14;;;;;;;3.70;1.13;;;13.70;96.30;;;;;;4988062;28;20079;-69
2022/06/02 08:27:15;;;;;;;3.95;0.80;;;13.80;95.40;;;;;;5002639;28;20140;-68
2022/06/02 08:30:05;;;;;;;14.27;3.45;;;13.90;93.40;;;;;;5001738;28;20144;-67
2022/06/02 08:32:37;;;;;;;5.13;1.30;;;14.00;94.20;;;;;;5005492;28;20056;-66
2022/06/02 08:35:26;;;;;;;2.38;0.75;;;14.10;93.90;;;;;;5010234;28;20055;-70
2022/06/02 08:38:04;;;;;;;5.50;1.08;;;14.10;91.80;;;;;;5080429;28;20365;-61
2022/06/02 08:41:27;;;;;;;3.13;0.77;;;14.10;90.40;;;;;;5067621;28;20369;-63
2022/06/02 08:44:08;;;;;;;6.75;1.40;;;14.40;96.50;;;;;;5067044;28;20048;-66
2022/06/02 08:46:44;;;;;;;2.38;0.80;;;14.40;91.80;;;;;;5062407;28;20058;-62
2022/06/02 08:49:41;;;;;;;3.72;1.13;;;14.50;91.70;;;;;;5050022;28;20129;-63
2022/06/02 08:52:29;;;;;;;7.03;1.13;;;14.60;92.80;;;;;;5068359;28;20083;-67
2022/06/02 08:55:37;;;;;;;7.35;1.60;;;14.70;94.40;;;;;;5063180;28;20345;-63
2022/06/02 08:58:12;;;;;;;4.05;1.15;;;14.90;95.20;;;;;;5027194;28;20044;-62
2022/06/02 09:01:29;;;;;;;5.22;1.10;;;14.80;92.30;;;;;;5065120;28;20047;-67
2022/06/02 09:04:19;;;;;;;3.45;0.95;;;14.60;89.50;;;;;;5007155;28;20055;-61
2022/06/02 09:07:18;;;;;;;2.40;0.75;;;14.50;90.20;;;;;;5061868;28;20066;-62
2022/06/02 09:09:50;;;;;;;3.60;0.80;;;14.50;84.50;;;;;;5067296;28;20075;-61
2022/06/02 09:12:52;;;;;;;3.17;1.38;;;14.30;84.10;;;;;;5079192;28;20055;-64
2022/06/02 09:15:37;;;;;;;3.97;0.98;;;14.30;93.10;;;;;;5063655;28;20044;-72
2022/06/02 09:18:24;;;;;;;1.65;0.80;;;14.50;95.20;;;;;;5085193;28;20040;-62
2022/06/02 09:21:06;;;;;;;0.80;0.50;;;14.70;88.40;;;;;;5086060;28;20048;-70
2022/06/02 09:23:50;;;;;;;6.30;1.30;;;14.80;84.30;;;;;;5046870;28;20505;-60
2022/06/02 09:26:25;;;;;;;1.70;1.38;;;15.20;84.40;;;;;;5061762;28;20494;-62
2022/06/02 09:29:18;;;;;;;1.58;0.98;;;15.20;77.00;;;;;;5082550;28;20052;-64
2022/06/02 09:31:53;;;;;;;2.35;0.80;;;15.20;90.40;;;;;;5064057;28;20419;-62
2022/06/02 09:34:25;;;;;;;1.88;0.82;;;15.50;90.20;;;;;;5065227;28;20055;-63
2022/06/02 09:37:12;;;;;;;2.47;0.90;;;15.30;81.80;;;;;;5067136;28;20101;-66
2022/06/02 09:40:19;;;;;;;2.97;1.02;;;15.40;76.10;;;;;;5040324;28;20043;-71
2022/06/02 09:43:19;;;;;;;5.68;0.95;;;15.70;74.30;;;;;;5057143;28;20043;-70
2022/06/02 09:46:06;;;;;;;2.45;0.85;;;16.00;71.60;;;;;;5084666;28;20050;-65
2022/06/02 09:48:53;;;;;;;2.90;0.90;;;15.80;73.00;;;;;;5065942;28;20044;-68
2022/06/02 09:51:51;;;;;;;3.50;0.90;;;15.70;72.70;;;;;;5058737;28;20398;-62
2022/06/02 09:54:34;;;;;;;3.80;1.55;;;15.60;81.70;;;;;;5044929;28;20056;-67
2022/06/02 09:57:55;;;;;;;3.90;1.10;;;15.40;80.50;;;;;;5042173;28;20123;-68
2022/06/02 10:00:32;;;;;;;2.72;0.60;;;15.10;68.60;;;;;;5065688;28;20044;-70
2022/06/02 10:03:29;;;;;;;0.93;0.70;;;15.20;71.60;;;;;;5040395;28;20064;-64
2022/06/02 10:06:32;;;;;;;3.63;1.20;;;15.40;70.70;;;;;;5047016;28;20051;-66
2022/06/02 10:09:16;;;;;;;1.55;0.88;;;15.50;75.80;;;;;;5063937;28;20135;-61
2022/06/02 10:12:54;;;;;;;4.32;0.88;;;15.40;69.80;;;;;;5079651;28;20121;-65
2022/06/02 10:14:45;;;;;;;2.53;0.70;;;15.30;72.70;;;;;;5064190;28;20558;-60
2022/06/02 10:17:30;;;;;;;2.30;0.90;;;15.40;73.70;;;;;;5082874;28;20044;-67
2022/06/02 10:20:21;;;;;;;1.33;0.60;;;15.70;82.90;;;;;;5062217;28;20134;-62
2022/06/02 10:22:55;;;;;;;2.85;0.80;;;16.00;68.70;;;;;;5062102;28;20044;-70
2022/06/02 10:25:24;;;;;;;1.48;0.70;;;16.20;64.80;;;;;;5063213;28;20055;-71
2022/06/02 10:28:40;;;;;;;3.08;0.95;;;16.20;66.20;;;;;;5062365;28;20075;-66
2022/06/02 10:31:20;;;;;;;2.70;1.02;;;16.00;62.60;;;;;;5052222;28;20519;-64
2022/06/02 10:34:15;;;;;;;;;;;15.90;65.10;;;;;;5066982;28;20174;-70
2022/06/02 10:37:02;;;;;;;1.77;1.00;;;15.70;64.00;;;;;;5010803;28;19922;-66
2022/06/02 10:39:47;;;;;;;1.83;0.80;;;15.70;69.60;;;;;;5047959;28;20051;-61
2022/06/02 10:42:40;;;;;;;1.67;0.90;;;15.60;70.90;;;;;;5050800;28;20076;-65
2022/06/02 10:45:35;;;;;;;2.40;0.82;;;15.40;71.70;;;;;;5047681;28;20051;-62
2022/06/02 10:48:22;;;;;;;3.17;0.95;;;15.30;75.90;;;;;;5077473;28;20064;-69
2022/06/02 10:51:06;;;;;;;5.32;1.00;;;15.30;71.30;;;;;;5058587;28;20051;-65
2022/06/02 10:53:59;;;;;;;2.90;1.13;;;15.40;82.60;;;;;;5044444;28;20110;-62
2022/06/02 10:56:50;;;;;;;3.50;0.77;;;15.70;72.10;;;;;;5081007;28;20361;-60
2022/06/02 10:59:43;;;;;;;2.50;0.70;;;15.70;70.30;;;;;;5064091;28;20044;-68
2022/06/02 11:02:34;;;;;;;4.05;0.85;;;15.80;66.30;;;;;;5059419;28;20051;-64
2022/06/02 11:05:27;;;;;;;2.78;0.90;;;15.90;66.00;;;;;;5066063;28;20101;-65
2022/06/02 11:08:04;;;;;;;2.67;0.60;;;15.90;70.50;;;;;;5063156;28;20345;-61
2022/06/02 11:10:55;;;;;;;2.35;0.90;;;15.90;67.50;;;;;;5044551;28;20051;-66
2022/06/02 11:13:48;;;;;;;5.05;1.00;;;15.90;66.20;;;;;;5081864;28;20123;-70
2022/06/02 11:16:47;;;;;;;3.35;1.13;;;15.90;72.00;;;;;;5063587;28;20047;-67
2022/06/02 11:19:38;;;;;;;3.70;1.13;;;16.20;79.00;;;;;;5079511;28;20040;-65
2022/06/02 11:22:31;;;;;;;1.30;0.93;;;16.20;70.90;;;;;;5063078;28;20052;-61
2022/06/02 11:25:33;;;;;;;6.10;1.52;;;16.30;65.10;;;;;;5061660;28;20079;-70
2022/06/02 11:28:17;;;;;;;2.80;1.25;;;16.40;66.30;;;;;;5062469;28;20163;-71
2022/06/02 11:30:49;;;;;;;;;;;16.50;59.00;;;;;;5058945;28;20032;-64
2022/06/02 11:33:39;;;;;;;1.65;0.70;;;16.50;59.50;;;;;;5061242;28;19927;-63
2022/06/02 11:36:29;;;;;;;7.15;0.82;;;16.50;60.90;;;;;;5079593;28;20055;-68
2022/06/02 11:39:23;;;;;;;2.95;1.33;;;16.40;70.40;;;;;;5058841;28;20044;-67
2022/06/02 11:42:07;;;;;;;8.82;0.98;;;16.50;64.70;;;;;;5060416;28;20071;-72
2022/06/02 11:44:33;;;;;;;3.05;1.10;;;16.30;70.40;;;;;;5058645;28;20048;-73
2022/06/02 11:47:14;;;;;;;8.07;1.10;;;16.10;70.80;;;;;;5045674;28;20068;-72
2022/06/02 11:49:58;;;;;;;1.38;0.68;;;16.00;77.00;;;;;;5060086;28;20043;-69
2022/06/02 11:52:30;;;;;;;5.57;1.20;;;16.20;80.60;;;;;;5063558;28;20080;-65
2022/06/02 11:55:03;;;;;;;2.03;0.80;;;16.30;74.90;;;;;;5081393;28;20063;-70
2022/06/02 11:57:57;;;;;;;5.25;1.10;;;16.30;66.50;;;;;;5065816;28;20048;-68
2022/06/02 12:01:01;;;;;;;3.72;0.80;;;16.30;64.10;;;;;;5066506;28;20051;-68
2022/06/02 12:03:32;;;;;;;1.55;0.82;;;16.40;71.50;;;;;;5066688;28;20048;-63
2022/06/02 12:06:07;;;;;;;3.85;1.27;;;16.60;77.10;;;;;;5052318;28;20490;-68
2022/06/02 12:09:03;;;;;;;2.28;0.95;;;16.70;65.50;;;;;;5039599;28;20088;-69
2022/06/02 12:11:43;;;;;;;2.25;0.88;;;16.50;65.00;;;;;;5052716;28;20148;-61
2022/06/02 12:14:32;;;;;;;2.80;0.70;;;16.30;68.30;;;;;;5079758;28;20185;-69
2022/06/02 12:17:01;;;;;;;2.60;0.87;;;16.40;69.70;;;;;;5070217;28;20100;-67
2022/06/02 12:19:48;;;;;;;2.42;0.82;;;16.60;68.00;;;;;;5070392;28;20111;-64
2022/06/02 12:22:16;;;;;;;2.10;0.88;;;16.70;67.30;;;;;;5069664;28;20528;-66
2022/06/02 12:24:49;;;;;;;2.95;0.90;;;16.50;67.60;;;;;;5069570;28;20050;-63
2022/06/02 12:28:00;;;;;;;4.00;0.75;;;16.30;69.90;;;;;;5069778;28;20048;-69
2022/06/02 12:30:58;;;;;;;1.88;0.90;;;16.40;68.30;;;;;;5040045;28;20066;-67
2022/06/02 12:34:03;;;;;;;4.65;1.08;;;16.60;74.00;;;;;;5061020;28;20062;-63
2022/06/02 12:36:48;;;;;;;1.10;0.60;;;17.00;62.30;;;;;;5069455;28;20074;-70
2022/06/02 12:39:28;;;;;;;1.50;0.80;;;17.00;67.00;;;;;;5069214;28;20055;-68
2022/06/02 12:42:09;;;;;;;1.75;0.70;;;16.90;59.40;;;;;;5053356;28;20048;-65
2022/06/02 12:45:00;;;;;;;1.38;0.80;;;17.00;58.30;;;;;;5069910;28;20052;-67
2022/06/02 12:47:35;;;;;;;3.33;0.75;;;17.20;63.20;;;;;;5070051;28;20059;-70
2022/06/02 12:50:22;;;;;;;2.75;0.60;;;17.10;63.50;;;;;;5066584;28;20174;-66
2022/06/02 12:52:57;;;;;;;2.75;0.68;;;16.70;60.40;;;;;;5069496;28;20131;-63
2022/06/02 12:55:34;;;;;;;0.88;0.70;;;16.50;66.50;;;;;;5070169;28;20047;-66
2022/06/02 12:58:24;;;;;;;2.10;0.80;;;16.60;63.20;;;;;;5088422;28;20036;-61
2022/06/02 13:01:17;;;;;;;4.97;0.73;;;16.90;62.50;;;;;;5068765;28;20050;-63
2022/06/02 13:03:51;;;;;;;4.68;0.70;;;17.30;63.60;;;;;;5068770;28;20063;-63
2022/06/02 13:06:26;;;;;;;4.47;0.75;;;17.50;61.30;;;;;;5087185;28;20164;-65
2022/06/02 13:09:10;;;;;;;7.60;0.90;;;17.20;62.50;;;;;;5069450;28;20075;-67
2022/06/02 13:11:56;;;;;;;4.38;0.73;;;17.30;66.60;;;;;;5057551;28;20048;-64
2022/06/02 13:14:59;;;;;;;3.47;0.80;;;17.10;60.30;;;;;;5067216;28;20044;-69
2022/06/02 13:17:52;;;;;;;2.15;0.70;;;16.90;62.40;;;;;;5069796;28;20088;-63
2022/06/02 13:20:35;;;;;;;3.40;0.73;;;16.80;60.60;;;;;;5058380;28;20055;-61
2022/06/02 13:23:32;;;;;;;2.90;0.90;;;16.70;61.00;;;;;;5065530;28;20417;-61
2022/06/02 13:26:29;;;;;;;3.00;0.80;;;16.50;57.10;;;;;;5069234;28;20070;-63
2022/06/02 13:29:04;;;;;;;3.53;1.17;;;16.80;61.00;;;;;;5067492;28;20079;-70
2022/06/02 13:31:48;;;;;;;2.08;0.65;;;17.00;59.00;;;;;;5068727;28;20070;-71
2022/06/02 13:34:30;;;;;;;2.25;0.80;;;17.10;59.30;;;;;;5052327;28;20052;-66
2022/06/02 13:37:09;;;;;;;6.15;0.80;;;16.90;66.50;;;;;;5087281;28;20420;-59
2022/06/02 13:40:15;;;;;;;3.95;0.68;;;16.60;78.10;;;;;;5068195;28;20461;-63
2022/06/02 13:43:13;;;;;;;6.82;0.98;;;16.30;84.00;;;;;;5060712;28;20058;-70
2022/06/02 13:45:57;;;;;;;4.35;0.80;;;16.20;90.70;;;;;;5068639;28;20055;-60
2022/06/02 13:49:01;;;;;;;3.53;1.27;;;16.30;88.90;;;;;;5068532;28;20039;-65
2022/06/02 13:51:27;;;;;;;0.50;0.50;;;16.50;92.50;;;;;;5076884;28;20040;-62
2022/06/02 13:57:38;;;;;;;4.97;1.13;;;16.60;83.40;;;;;;5086379;28;20046;-66
2022/06/02 14:00:04;;;;;;;3.92;1.00;;;16.30;88.80;;;;;;5058303;28;20051;-64
2022/06/02 14:02:45;;;;;;;2.63;0.82;;;16.30;87.50;;;;;;5086198;28;20097;-62
2022/06/02 14:05:14;;;;;;;1.83;1.00;;;16.30;92.40;;;;;;5067358;28;20051;-58
2022/06/02 14:07:48;;;;;;;2.75;1.17;;;16.40;92.30;;;;;;5068112;28;20048;-60
2022/06/02 14:10:47;;;;;;;15.63;1.95;;;16.50;93.60;;;;;;5085460;28;20181;-65
2022/06/02 14:13:51;;;;;;;5.95;0.98;;;16.50;92.30;;;;;;5051690;28;20052;-59
2022/06/02 14:16:42;;;;;;;3.22;0.70;;;16.70;87.30;;;;;;5066974;28;20410;-62
2022/06/02 14:19:25;;;;;;;2.58;1.05;;;16.80;89.40;;;;;;5061533;28;20626;-58
2022/06/02 14:22:12;;;;;;;4.55;1.00;;;16.80;88.70;;;;;;5020529;28;20383;-61
2022/06/02 14:24:50;;;;;;;5.03;0.90;;;16.80;82.40;;;;;;5080119;28;20059;-64
2022/06/02 14:27:46;;;;;;;6.03;1.25;;;16.70;83.30;;;;;;5065662;28;20448;-60
2022/06/02 14:30:18;;;;;;;2.20;0.80;;;16.50;82.60;;;;;;5076336;28;20072;-58
2022/06/02 14:32:58;;;;;;;6.70;0.93;;;16.30;84.60;;;;;;5066760;28;20040;-61
2022/06/02 14:35:25;;;;;;;5.50;1.13;;;16.20;87.90;;;;;;5068067;28;20040;-59
2022/06/02 14:38:15;;;;;;;3.33;0.85;;;16.20;88.60;;;;;;5067855;28;20050;-65
2022/06/02 14:40:58;;;;;;;4.90;1.00;;;16.20;82.20;;;;;;5085942;28;20052;-63